Terminal Aerodrome Forecast
Issued by NWS Lake Charles, LA

Home | Current Version | Previous Version | Text Only | Print | Product List | Glossary On
Versions: 1 2 3 4 5 6 7 8 9 10 11 12 13 14 15 16 17 18 19
000
FTUS44 KLCH 240500
TAFLFT
TAF
KLFT 240520Z 2406/2506 19003KT P6SM SKC
     FM240900 19003KT 4SM BR BKN015
     FM241500 18008KT P6SM BKN025 BKN250
     FM241800 19011G19KT P6SM SCT035 BKN250
     FM250000 19008KT P6SM BKN020=

USA.gov is the U.S. government's official web portal to all federal, state and local government web resources and services.